Wetterdaten von Putzkau
Wetterdaten: aktuell Samstag, 08.05.2021 16:30
Datum Zeit Temp. A. Feuchte A. Luftdruck Regen Wind Windben
08.05.2021 16:30 15,0 C 36 % 1018,0 hPa 0,0 l/m 3,1 km/h (1 Bft) 3,7 km/h (1 Bft)
08.05.2021 15:30 15,0 C 38 % 1018,2 hPa 0,0 l/m 1,3 km/h (1 Bft) 3,4 km/h (1 Bft)
08.05.2021 14:30 15,5 C 38 % 1018,2 hPa 0,0 l/m 3,4 km/h (1 Bft) 0,0 km/h (0 Bft)
08.05.2021 13:30 15,3 C 40 % 1018,9 hPa 0,0 l/m 3,2 km/h (1 Bft) 4,5 km/h (1 Bft)
08.05.2021 12:30 14,8 C 45 % 1019,1 hPa 0,0 l/m 3,1 km/h (1 Bft) 6,9 km/h (2 Bft)
08.05.2021 11:30 13,7 C 43 % 1019,2 hPa 0,0 l/m 3,2 km/h (1 Bft) 3,9 km/h (1 Bft)
08.05.2021 10:30 14,3 C 50 % 1019,0 hPa 0,0 l/m 2,1 km/h (1 Bft) 7,9 km/h (2 Bft)
08.05.2021 10:06 14,3 C 50 % 1019,0 hPa 0,0 l/m 2,1 km/h (1 Bft) 5,0 km/h (1 Bft)
08.05.2021 09:06 12,0 C 63 % 1019,2 hPa 0,0 l/m 0,5 km/h (0 Bft) 3,4 km/h (1 Bft)
08.05.2021 08:06 6,0 C 75 % 1019,4 hPa 0,0 l/m 1,6 km/h (1 Bft) 2,9 km/h (1 Bft)
08.05.2021 07:06 4,0 C 79 % 1018,6 hPa 0,0 l/m 0,3 km/h (0 Bft) 0,0 km/h (0 Bft)
08.05.2021 06:06 3,1 C 81 % 1018,2 hPa 0,0 l/m 0,0 km/h (0 Bft) 0,0 km/h (0 Bft)
08.05.2021 05:06 2,4 C 81 % 1017,9 hPa 0,0 l/m 0,0 km/h (0 Bft) 0,0 km/h (0 Bft)
08.05.2021 04:06 2,4 C 81 % 1017,9 hPa 0,0 l/m 0,0 km/h (0 Bft) 0,0 km/h (0 Bft)
08.05.2021 03:06 3,2 C 81 % 1017,9 hPa 0,0 l/m 0,0 km/h (0 Bft) 0,0 km/h (0 Bft)
08.05.2021 02:06 3,0 C 81 % 1017,8 hPa 0,0 l/m 0,0 km/h (0 Bft) 1,6 km/h (1 Bft)
08.05.2021 01:06 3,5 C 80 % 1017,9 hPa 0,0 l/m 0,0 km/h (0 Bft) 0,0 km/h (0 Bft)
08.05.2021 00:06 3,0 C 80 % 1017,9 hPa 0,0 l/m 0,0 km/h (0 Bft) 0,0 km/h (0 Bft)
07.05.2021 23:30 2,5 C 79 % 1017,7 hPa 0,0 l/m 0,0 km/h (0 Bft) 0,0 km/h (0 Bft)
07.05.2021 22:30 4,1 C 76 % 1017,5 hPa 0,0 l/m 0,0 km/h (0 Bft) 0,0 km/h (0 Bft)
07.05.2021 21:30 5,0 C 72 % 1016,9 hPa 0,0 l/m 0,0 km/h (0 Bft) 0,0 km/h (0 Bft)
07.05.2021 20:41 5,9 C 71 % 1016,8 hPa 0,0 l/m 1,4 km/h (1 Bft) 0,0 km/h (0 Bft)
07.05.2021 20:06 6,9 C 68 % 1015,2 hPa 0,0 l/m 3,2 km/h (1 Bft) 3,1 km/h (1 Bft)
07.05.2021 19:06 7,5 C 71 % 1014,8 hPa 0,0 l/m 1,6 km/h (1 Bft) 3,1 km/h (1 Bft)
07.05.2021 18:06 8,1 C 71 % 1014,2 hPa 0,0 l/m 0,2 km/h (0 Bft) 0,0 km/h (0 Bft)
07.05.2021 17:06 8,4 C 71 % 1013,1 hPa 0,0 l/m 1,6 km/h (1 Bft) 1,9 km/h (1 Bft)
_ Min-Zeit 05:06 15:00 17:06 - 06:36 14:30
Minimum _ 2,4 C 35 % 1013,1 hPa - 0,0 km/h (0 Bft) 0,0 km/h (0 Bft)
_ Max-Zeit 13:00 06:06 08:36 16:30 14:30 12:00
Maximum _ 16,5 C 81 % 1019,4 hPa 0,0 l/m 3,4 km/h
S-SO (1 Bft)
11,7 km/h
N-NW (2 Bft)
Durchschnitt _ 7,9 C 66 % 1017,4 hPa #0,0 l/m 1,2 km/h (1 Bft) 1,8 km/h (1 Bft)
© 2021 Michael Jger webmaster [at] putzkau.de